Flight Track Log - Related Links

Times and Time Zones

All times are in EDT time to prevent confusion due to time zone crossing. See the SKW5398 flight status page for this flight to view local times or setup timezone preferences in your user account.

Time Position Orientation Groundspeed Altitude Reporting Facility
EDT Latitude Longitude Course Direction KTS MPH feet Rate Location/Type
Thu 12:58:58 PM 38.6667 -121.6000 159° South 130 150 1,600  Level Northern Cal TRACON
Thu 12:59:58 PM 38.6333 -121.5833 165° South 173 199 3,100 1,513 Climbing Northern Cal TRACON
Thu 01:00:53 PM 38.5833 -121.5667 180° South 180 207 4,500 1,488 Climbing Northern Cal TRACON
Thu 01:01:59 PM 38.5333 -121.5667 169° South 187 215 6,100 1,619 Climbing Northern Cal TRACON
Thu 01:02:59 PM 38.4667 -121.5500 180° South 186 214 7,900 1,450 Climbing Northern Cal TRACON
Thu 01:03:59 PM 38.4167 -121.5500 180° South 203 234 9,000 600 Climbing Northern Cal TRACON
Thu 01:04:59 PM 38.3500 -121.5500 165° South 225 259 9,100 50 Climbing Northern Cal TRACON
Thu 01:05:59 PM 38.3000 -121.5333 174° South 227 261 9,100  Level Northern Cal TRACON
Thu 01:08:00 PM 38.1667 -121.5167 169° South 223 257 9,100  Level Northern Cal TRACON
Thu 01:09:00 PM 38.1000 -121.5000 180° South 221 254 9,100 -50 Level Northern Cal TRACON
Thu 01:10:00 PM 38.0500 -121.5000 169° South 229 264 9,000 -50 Descending Northern Cal TRACON
Thu 01:11:00 PM 37.9833 -121.4833 180° South 229 264 9,000  Level Northern Cal TRACON
Thu 01:12:00 PM 37.9167 -121.4833 169° South 226 260 9,000  Level Northern Cal TRACON
Thu 01:13:00 PM 37.8500 -121.4667 180° South 223 257 9,000  Level Northern Cal TRACON
Thu 01:14:01 PM 37.8000 -121.4667 169° South 219 252 9,000  Level Northern Cal TRACON
Thu 01:15:01 PM 37.7333 -121.4500 180° South 222 255 9,000  Level Northern Cal TRACON
Thu 01:16:01 PM 37.6667 -121.4500 230° Southwest 236 272 9,000  Level Northern Cal TRACON
Thu 01:17:01 PM 37.6333 -121.5000 232° Southwest 227 261 9,000 33 Level Northern Cal TRACON
Thu 01:19:02 PM 37.5500 -121.6333 247° West 218 251 9,100 20 Climbing Northern Cal TRACON
Thu 01:22:02 PM 37.5000 -121.7833 253° West 206 237 9,100 -200 Level Northern Cal TRACON
Thu 01:23:02 PM 37.4833 -121.8500 270° West 183 211 8,300 -600 Descending Northern Cal TRACON
Thu 01:24:02 PM 37.4833 -121.9167 270° West 174 200 7,900 -600 Descending Northern Cal TRACON
Thu 01:25:02 PM 37.4833 -121.9667 288° West 171 197 7,100 -450 Descending Northern Cal TRACON
Thu 01:26:02 PM 37.5000 -122.0333 293° West 178 205 7,000 -694 Descending Northern Cal TRACON
Thu 01:27:03 PM 37.5167 -122.0833 288° West 171 197 5,700 -1,537 Descending Northern Cal TRACON
Thu 01:28:03 PM 37.5333 -122.1500 302° West 181 208 3,900 -1,267 Descending Northern Cal TRACON
Thu 01:30:03 PM 37.5833 -122.2500 302° West 152 175 1,900 -1,000 Descending Northern Cal TRACON

Login

Don't have an account? Register now (free) for customized features, flight alerts, and more!